Portada
METAR-TAF:

METAR-TAF

Aeroports :

Bélgorod, Rússia

latitud: 50-38-36N, longitud: 036-35-24E, altitud: 224 m

Observació

L'informe es va fer fa 44 minuts, a les 20:00 UTC
Vent 8 kt del Sud-Est
Temperatura 12°C
Humitat 94%
Pressió 1005 hPa
Visibilitat 10 km o més
Núvols disperses a una alçada de 3300 ft, Cumulonimbus.

METAR: UUOB 012000Z 13004MPS 9999 SCT033CB 12/11 Q1005 R11/290055 NOSIG

Hora: 23:44 (20:44 UTC)

Pronòstic

L'informe es va fer fa 3 hores i 44 minuts, a les 17:00 UTC
Pronòstic vàlid del 01 a les 18 UTC al 02 a les 03 UTC
Vent 10 kt del Sud-Est
Visibilitat 10 km o més
Cel ennuvolat a una alçada de 2000 ft, Cumulonimbus.
Temporalment
l' 01 a les 18 UTC al 01 a les 24 UTC
Visibilitat: 5000 m
Cel ennuvolat a una alçada de 1500 ft, Cumulonimbus.
xàfecs de pluja

TAF: UUOB 011700Z 0118/0203 14005MPS 9999 BKN020CB TEMPO 0118/0124 5000 -SHRA BKN015CB

Observacions i pronòstics meteorològics de més de 4000 aeroports (METAR i TAF).

Les estacions disponibles són els punts grocs i vermells al mapa.

Posi el ratolí al punt desitjat per veure el nom de l'estació.

Feu clic per veure les observacions i els pronòstics meteorològics.

Per canviar el mapa: feu clic els botons verds amb una creu de color negre per apropar; al botó verd amb un guió per allunyar la imatge; o en les fletxes verdes per a mapes adjacents.


METAR-TAF: